Time;durP1;ratioP1;P1;durP2;ratioP2;P2;SDS_P1;SDS_P2;PMS_P1;PMS_P2;Temp;Humidity;BMP_temperature;BMP_pressure;BME280_temperature;BME280_humidity;BME280_pressure;Samples;Min_cycle;Max_cycle;Signal;HPM_P1;HPM_P2
2022/03/13 00:00:07;;;;;;;17.30;12.50;;;11.00;48.90;;;;;;5059104;28;20425;-76
2022/03/13 00:02:32;;;;;;;19.27;14.63;;;11.00;48.70;;;;;;5059425;28;20555;-77
2022/03/13 00:05:00;;;;;;;17.70;12.87;;;11.00;48.90;;;;;;5059550;28;20488;-74
2022/03/13 00:07:28;;;;;;;16.50;13.90;;;10.70;49.10;;;;;;5060222;28;20427;-75
2022/03/13 00:09:54;;;;;;;19.90;14.60;;;10.70;49.20;;;;;;5061491;28;21041;-75
2022/03/13 00:12:29;;;;;;;18.07;13.23;;;10.80;49.10;;;;;;5060351;28;20452;-75
2022/03/13 00:14:56;;;;;;;20.37;15.00;;;10.90;49.10;;;;;;5058623;28;20474;-74
2022/03/13 00:17:27;;;;;;;22.27;13.87;;;10.90;48.70;;;;;;5060894;28;21210;-77
2022/03/13 00:19:55;;;;;;;20.53;13.30;;;10.80;49.20;;;;;;5059767;28;20430;-75
2022/03/13 00:22:21;;;;;;;16.27;12.90;;;10.40;49.30;;;;;;5061946;28;20437;-76
2022/03/13 00:24:47;;;;;;;23.03;14.00;;;10.60;49.50;;;;;;5061268;28;20851;-76
2022/03/13 00:27:12;;;;;;;22.37;15.30;;;10.70;49.40;;;;;;5058947;28;20226;-77
2022/03/13 00:29:40;;;;;;;22.83;14.17;;;10.60;49.60;;;;;;5053812;28;20203;-76
2022/03/13 00:32:07;;;;;;;21.77;16.40;;;10.70;49.40;;;;;;5059783;28;20741;-74
2022/03/13 00:34:32;;;;;;;19.20;14.83;;;10.70;49.40;;;;;;5057910;28;20465;-77
2022/03/13 00:36:59;;;;;;;20.70;14.60;;;10.60;49.50;;;;;;5046513;28;20422;-76
2022/03/13 00:39:25;;;;;;;21.37;14.80;;;10.70;49.30;;;;;;5060486;28;20176;-74
2022/03/13 00:41:51;;;;;;;19.00;14.30;;;10.70;49.40;;;;;;5055766;28;20446;-75
2022/03/13 00:44:16;;;;;;;18.27;14.17;;;10.60;49.80;;;;;;5061875;28;20453;-76
2022/03/13 00:46:43;;;;;;;16.57;13.40;;;10.50;49.80;;;;;;5046878;28;20180;-78
2022/03/13 00:49:08;;;;;;;21.57;14.40;;;10.50;49.60;;;;;;5057486;28;20183;-75
2022/03/13 00:51:34;;;;;;;22.43;14.93;;;10.50;49.20;;;;;;5060795;28;21005;-76
2022/03/13 00:54:00;;;;;;;22.50;14.63;;;10.50;49.20;;;;;;5057601;28;20171;-77
2022/03/13 00:56:25;;;;;;;18.03;15.13;;;10.50;49.40;;;;;;5043191;28;20744;-75
2022/03/13 00:58:51;;;;;;;23.57;14.53;;;10.40;49.50;;;;;;5059364;28;20250;-74
2022/03/13 01:01:17;;;;;;;23.73;14.63;;;10.50;49.30;;;;;;5059122;28;20198;-76
2022/03/13 01:03:42;;;;;;;21.43;14.40;;;10.50;49.10;;;;;;5060115;28;20188;-77
2022/03/13 01:06:09;;;;;;;21.17;15.13;;;10.40;49.30;;;;;;5062010;28;20425;-73
2022/03/13 01:08:35;;;;;;;21.73;14.70;;;10.50;49.30;;;;;;5041954;28;20211;-74
2022/03/13 01:11:02;;;;;;;22.93;14.40;;;10.40;49.40;;;;;;5059228;28;20997;-75
2022/03/13 01:13:30;;;;;;;18.67;14.70;;;10.10;49.40;;;;;;5060243;28;20433;-74
2022/03/13 01:16:20;;;;;;;18.40;14.30;;;10.00;49.90;;;;;;5058820;28;20486;-75
2022/03/13 01:18:52;;;;;;;20.57;15.27;;;9.90;51.10;;;;;;5041042;28;20434;-77
2022/03/13 01:21:19;;;;;;;20.03;14.97;;;9.90;51.00;;;;;;5063551;28;20442;-75
2022/03/13 01:24:00;;;;;;;23.53;15.13;;;10.10;50.30;;;;;;5043348;28;20437;-78
2022/03/13 01:26:26;;;;;;;21.13;14.93;;;10.10;50.20;;;;;;5058191;28;20509;-77
2022/03/13 01:28:59;;;;;;;19.10;14.33;;;10.20;49.80;;;;;;5037464;28;20516;-74
2022/03/13 01:31:26;;;;;;;22.00;15.00;;;10.20;49.70;;;;;;5055879;28;20195;-74
2022/03/13 01:33:52;;;;;;;20.20;14.23;;;10.30;49.80;;;;;;5061401;28;20437;-78
2022/03/13 01:36:18;;;;;;;19.37;14.97;;;10.40;49.70;;;;;;5059255;28;21019;-78
2022/03/13 01:38:44;;;;;;;22.37;15.10;;;10.40;49.50;;;;;;5059114;28;20461;-74
2022/03/13 01:41:09;;;;;;;18.20;14.00;;;10.40;49.30;;;;;;5058554;28;20195;-74
2022/03/13 01:43:36;;;;;;;19.87;14.10;;;10.40;49.60;;;;;;5056289;28;20218;-75
2022/03/13 01:46:03;;;;;;;18.10;13.67;;;10.20;49.40;;;;;;5058386;28;20540;-73
2022/03/13 01:48:37;;;;;;;19.97;14.70;;;10.10;50.00;;;;;;5055096;28;20481;-76
2022/03/13 01:51:03;;;;;;;18.50;13.50;;;10.10;49.50;;;;;;5060276;28;20485;-75
2022/03/13 01:53:28;;;;;;;25.10;15.13;;;10.10;49.40;;;;;;5055980;28;20472;-77
2022/03/13 01:55:58;;;;;;;23.20;15.20;;;10.10;49.20;;;;;;5041482;28;20980;-72
2022/03/13 01:58:24;;;;;;;19.20;14.27;;;10.10;49.00;;;;;;5056239;28;20312;-73
2022/03/13 02:00:50;;;;;;;20.40;14.40;;;10.10;49.00;;;;;;5058204;28;20434;-73
2022/03/13 02:03:17;;;;;;;21.90;15.93;;;10.10;49.20;;;;;;5038449;28;21174;-76
2022/03/13 02:05:43;;;;;;;19.63;14.10;;;10.00;49.20;;;;;;5054585;28;20175;-78
2022/03/13 02:08:20;;;;;;;20.30;15.10;;;10.00;49.30;;;;;;5059781;28;20509;-76
2022/03/13 02:10:46;;;;;;;20.90;14.63;;;9.80;50.10;;;;;;5057000;28;20180;-74
2022/03/13 02:13:16;;;;;;;21.33;15.87;;;9.70;50.50;;;;;;5042681;28;20439;-76
2022/03/13 02:15:41;;;;;;;21.13;15.07;;;9.70;50.20;;;;;;5060353;28;20461;-73
2022/03/13 02:18:07;;;;;;;21.70;15.33;;;9.70;50.30;;;;;;5036880;28;20984;-76
2022/03/13 02:20:41;;;;;;;22.23;14.90;;;9.70;50.40;;;;;;5057940;28;20179;-72
2022/03/13 02:23:17;;;;;;;22.67;14.90;;;9.70;50.40;;;;;;5034876;28;20433;-74
2022/03/13 02:25:43;;;;;;;21.90;15.93;;;9.40;50.70;;;;;;5061363;28;20436;-73
2022/03/13 02:28:09;;;;;;;17.53;14.20;;;9.50;50.80;;;;;;5059150;28;20475;-73
2022/03/13 02:30:35;;;;;;;20.67;15.10;;;9.60;50.60;;;;;;5055332;28;20677;-73
2022/03/13 02:33:01;;;;;;;20.47;14.20;;;9.60;50.40;;;;;;5056486;28;20500;-73
2022/03/13 02:35:29;;;;;;;20.37;14.63;;;9.60;50.70;;;;;;5054838;28;20199;-75
2022/03/13 02:37:55;;;;;;;21.20;14.80;;;9.50;50.80;;;;;;5041777;28;20266;-74
2022/03/13 02:40:24;;;;;;;29.30;16.57;;;9.60;50.60;;;;;;5055473;28;22707;-72
2022/03/13 02:42:50;;;;;;;24.30;15.67;;;9.60;50.80;;;;;;5060096;28;20444;-73
2022/03/13 02:45:28;;;;;;;26.63;14.50;;;9.40;51.20;;;;;;5053024;28;20437;-74
2022/03/13 02:47:54;;;;;;;22.83;15.90;;;9.40;51.30;;;;;;5058358;28;20511;-74
2022/03/13 02:50:20;;;;;;;21.60;15.10;;;9.30;51.40;;;;;;5057542;28;20926;-75
2022/03/13 02:52:46;;;;;;;24.13;15.20;;;9.30;51.50;;;;;;5057620;28;20200;-75
2022/03/13 02:55:11;;;;;;;20.60;15.57;;;9.10;51.70;;;;;;5061364;28;20472;-77
2022/03/13 02:57:39;;;;;;;19.50;15.40;;;9.10;51.90;;;;;;5060420;28;20188;-77
2022/03/13 03:00:06;;;;;;;22.50;15.83;;;9.30;51.80;;;;;;5046005;28;20763;-75
2022/03/13 03:02:32;;;;;;;23.87;15.80;;;9.40;51.60;;;;;;5056015;28;20489;-76
2022/03/13 03:04:58;;;;;;;25.00;15.33;;;9.40;51.60;;;;;;5061357;28;20571;-75
2022/03/13 03:07:24;;;;;;;20.90;15.77;;;9.20;51.90;;;;;;5036409;28;20462;-75
2022/03/13 03:09:50;;;;;;;24.27;14.90;;;9.10;51.90;;;;;;5058299;28;20464;-76
2022/03/13 03:12:15;;;;;;;21.13;15.33;;;8.90;52.20;;;;;;5058161;28;20216;-75
2022/03/13 03:14:41;;;;;;;24.97;16.03;;;8.90;52.40;;;;;;5055788;28;20581;-76
2022/03/13 03:17:07;;;;;;;24.60;16.37;;;8.90;52.30;;;;;;5040384;28;20185;-77
2022/03/13 03:19:32;;;;;;;20.80;16.13;;;9.00;52.30;;;;;;5055046;28;20191;-75
2022/03/13 03:21:58;;;;;;;24.07;15.70;;;9.10;52.20;;;;;;5044789;28;20217;-76
2022/03/13 03:24:25;;;;;;;21.50;14.30;;;9.10;52.20;;;;;;5043609;28;20206;-75
2022/03/13 03:26:53;;;;;;;22.73;15.83;;;9.20;52.10;;;;;;5054259;28;20187;-75
2022/03/13 03:29:20;;;;;;;22.17;15.77;;;9.10;52.10;;;;;;5059079;28;21196;-75
2022/03/13 03:31:50;;;;;;;21.07;15.20;;;9.10;52.30;;;;;;5053973;28;20547;-75
2022/03/13 03:34:19;;;;;;;27.33;15.17;;;9.00;52.30;;;;;;5057138;28;20432;-75
2022/03/13 03:36:51;;;;;;;22.23;15.73;;;9.10;52.40;;;;;;5058627;28;20430;-75
2022/03/13 03:39:18;;;;;;;24.47;17.17;;;9.10;52.60;;;;;;5028220;28;20434;-76
2022/03/13 03:41:46;;;;;;;26.23;16.57;;;8.80;53.30;;;;;;5040452;28;20993;-78
2022/03/13 03:44:12;;;;;;;22.17;15.87;;;8.90;53.60;;;;;;5048260;28;20505;-75
2022/03/13 03:46:41;;;;;;;21.60;16.30;;;8.80;53.90;;;;;;5060787;28;20999;-76
2022/03/13 03:49:07;;;;;;;23.43;16.30;;;8.80;54.60;;;;;;5058751;28;20499;-77
2022/03/13 03:51:33;;;;;;;26.20;16.30;;;8.80;55.00;;;;;;5060230;28;20831;-75
2022/03/13 03:53:59;;;;;;;23.00;15.87;;;8.70;55.60;;;;;;5060536;28;20431;-74
2022/03/13 03:56:25;;;;;;;28.03;17.50;;;8.40;56.10;;;;;;5045917;28;20480;-75
2022/03/13 03:58:51;;;;;;;24.63;18.30;;;7.70;56.70;;;;;;5041612;28;20441;-72
2022/03/13 04:01:17;;;;;;;25.53;17.10;;;7.90;57.70;;;;;;5052883;28;20277;-72
2022/03/13 04:03:43;;;;;;;23.33;16.47;;;7.70;57.80;;;;;;5059244;28;20501;-74
2022/03/13 04:06:09;;;;;;;22.90;17.03;;;7.80;58.30;;;;;;5045090;28;20190;-73
2022/03/13 04:08:35;;;;;;;23.30;16.80;;;7.70;58.00;;;;;;5040392;28;20198;-74
2022/03/13 04:11:01;;;;;;;21.67;15.60;;;7.50;58.80;;;;;;5059078;28;20449;-76
2022/03/13 04:13:28;;;;;;;22.50;15.67;;;7.80;58.60;;;;;;5060009;28;20434;-75
2022/03/13 04:15:55;;;;;;;23.20;16.57;;;7.40;58.60;;;;;;5045699;28;20237;-75
2022/03/13 04:18:21;;;;;;;22.43;16.00;;;7.40;59.20;;;;;;5057216;28;20803;-74
2022/03/13 04:20:46;;;;;;;19.60;16.20;;;7.80;58.60;;;;;;5042384;28;20524;-74
2022/03/13 04:23:12;;;;;;;28.07;16.37;;;8.00;58.20;;;;;;5064258;28;20235;-73
2022/03/13 04:25:38;;;;;;;23.93;16.90;;;7.80;58.20;;;;;;5034028;28;20576;-74
2022/03/13 04:28:04;;;;;;;21.13;16.47;;;7.90;58.50;;;;;;5054797;28;20199;-73
2022/03/13 04:30:34;;;;;;;24.10;18.10;;;8.00;58.30;;;;;;5052761;28;20425;-74
2022/03/13 04:33:00;;;;;;;24.90;16.80;;;8.00;57.60;;;;;;5057626;28;20939;-74
2022/03/13 04:35:26;;;;;;;22.87;16.33;;;7.70;58.00;;;;;;5055910;28;20458;-74
2022/03/13 04:37:52;;;;;;;22.00;16.27;;;7.70;57.30;;;;;;5058474;28;20433;-75
2022/03/13 04:40:18;;;;;;;24.73;16.03;;;7.80;57.50;;;;;;5058927;28;20216;-73
2022/03/13 04:42:43;;;;;;;23.13;15.80;;;7.80;57.30;;;;;;5055446;28;20318;-74
2022/03/13 04:45:09;;;;;;;23.17;17.37;;;7.80;56.90;;;;;;5057810;28;20452;-75
2022/03/13 04:47:35;;;;;;;22.70;16.27;;;7.80;56.80;;;;;;5052643;28;21939;-74
2022/03/13 04:50:00;;;;;;;22.90;16.50;;;7.60;57.10;;;;;;5058061;28;20525;-74
2022/03/13 04:52:27;;;;;;;21.90;16.70;;;7.70;57.50;;;;;;5039296;28;20208;-75
2022/03/13 04:54:53;;;;;;;23.47;16.40;;;7.80;57.00;;;;;;5037613;28;20211;-74
2022/03/13 04:57:20;;;;;;;22.70;15.03;;;7.70;56.50;;;;;;5056469;28;20531;-73
2022/03/13 04:59:46;;;;;;;25.17;17.23;;;7.70;57.10;;;;;;5059076;28;20437;-73
2022/03/13 05:02:12;;;;;;;22.40;16.43;;;7.70;56.80;;;;;;5061193;28;20568;-74
2022/03/13 05:04:38;;;;;;;22.90;15.77;;;7.40;56.50;;;;;;5056663;28;20225;-76
2022/03/13 05:07:06;;;;;;;22.73;14.40;;;7.00;57.10;;;;;;5056636;28;20437;-76
2022/03/13 05:09:32;;;;;;;21.47;15.13;;;6.70;58.40;;;;;;5056097;28;20429;-75
2022/03/13 05:12:00;;;;;;;26.67;15.63;;;6.70;58.60;;;;;;5053502;28;20959;-77
2022/03/13 05:14:26;;;;;;;21.37;15.73;;;6.90;58.90;;;;;;5059061;28;20441;-75
2022/03/13 05:16:52;;;;;;;21.77;15.70;;;6.90;58.80;;;;;;5056037;28;20436;-71
2022/03/13 05:19:17;;;;;;;23.40;16.17;;;7.10;58.30;;;;;;5059940;28;20179;-72
2022/03/13 05:21:43;;;;;;;21.13;16.00;;;7.30;57.90;;;;;;5040441;28;20476;-74
2022/03/13 05:24:09;;;;;;;24.63;16.10;;;7.20;57.60;;;;;;5062289;28;20265;-71
2022/03/13 05:26:34;;;;;;;24.63;16.60;;;6.80;58.20;;;;;;5038803;28;20220;-71
2022/03/13 05:29:00;;;;;;;20.30;13.50;;;6.90;58.80;;;;;;5057983;28;20183;-72
2022/03/13 05:31:27;;;;;;;23.30;15.93;;;7.00;58.70;;;;;;5038400;28;20215;-72
2022/03/13 05:33:52;;;;;;;21.47;15.70;;;6.60;58.30;;;;;;5056744;28;20789;-73
2022/03/13 05:36:18;;;;;;;22.77;15.60;;;6.30;58.70;;;;;;5058965;28;20460;-73
2022/03/13 05:38:44;;;;;;;26.37;16.40;;;6.30;59.50;;;;;;5055590;28;20295;-73
2022/03/13 05:41:10;;;;;;;20.77;15.07;;;6.40;59.40;;;;;;5058921;28;20225;-74
2022/03/13 05:43:36;;;;;;;21.90;15.07;;;6.20;59.30;;;;;;5059722;28;20275;-73
2022/03/13 05:46:02;;;;;;;20.03;14.57;;;6.10;59.50;;;;;;5061821;28;20524;-73
2022/03/13 05:48:30;;;;;;;18.83;13.60;;;6.00;60.10;;;;;;5058713;28;20195;-73
2022/03/13 05:50:56;;;;;;;24.73;15.27;;;5.90;61.60;;;;;;5063365;28;20318;-73
2022/03/13 05:53:22;;;;;;;20.67;14.63;;;5.80;64.10;;;;;;5061306;28;21095;-72
2022/03/13 05:55:47;;;;;;;18.43;13.87;;;6.00;62.00;;;;;;5055303;28;20471;-74
2022/03/13 05:58:14;;;;;;;26.90;15.07;;;6.10;62.10;;;;;;5060396;28;20192;-74
2022/03/13 06:00:40;;;;;;;23.33;15.10;;;6.10;62.70;;;;;;5061541;28;20214;-73
2022/03/13 06:03:06;;;;;;;18.07;13.90;;;6.10;63.70;;;;;;5056375;28;20425;-72
2022/03/13 06:05:35;;;;;;;20.50;13.23;;;6.00;65.00;;;;;;5054855;28;20506;-73
2022/03/13 06:08:01;;;;;;;22.23;14.70;;;6.20;65.00;;;;;;5043550;28;20516;-73
2022/03/13 06:10:28;;;;;;;25.00;15.40;;;6.20;64.60;;;;;;5058239;28;21001;-72
2022/03/13 06:12:54;;;;;;;22.70;16.10;;;6.20;64.60;;;;;;5054765;28;20584;-73
2022/03/13 06:15:20;;;;;;;20.03;14.03;;;5.90;66.40;;;;;;5057632;28;20543;-72
2022/03/13 06:17:47;;;;;;;22.03;14.60;;;6.00;67.80;;;;;;5052713;28;20190;-72
2022/03/13 06:20:14;;;;;;;23.93;15.53;;;6.20;67.20;;;;;;5055061;28;20175;-72
2022/03/13 06:22:42;;;;;;;21.80;15.07;;;5.90;68.20;;;;;;5056474;28;20453;-71
2022/03/13 06:25:10;;;;;;;24.20;15.57;;;5.60;69.80;;;;;;5043726;28;20445;-72
2022/03/13 06:27:36;;;;;;;22.90;14.37;;;5.80;70.30;;;;;;5053728;28;20521;-73
2022/03/13 06:30:09;;;;;;;25.57;16.17;;;5.70;70.70;;;;;;5053072;28;20466;-74
2022/03/13 06:32:35;;;;;;;26.30;15.70;;;5.60;71.60;;;;;;5056311;28;20453;-73
2022/03/13 06:35:01;;;;;;;28.40;16.07;;;5.80;70.50;;;;;;5058867;28;20485;-72
2022/03/13 06:37:27;;;;;;;25.63;15.43;;;5.70;71.10;;;;;;5054260;28;20432;-73
2022/03/13 06:39:52;;;;;;;18.87;13.73;;;5.70;71.40;;;;;;5054216;28;20429;-72
2022/03/13 06:42:18;;;;;;;24.97;15.20;;;5.80;71.40;;;;;;5056139;28;20252;-73
2022/03/13 06:44:44;;;;;;;24.47;16.10;;;6.00;71.20;;;;;;5053812;28;20557;-74
2022/03/13 06:47:10;;;;;;;24.70;17.10;;;6.10;69.90;;;;;;5059120;28;20559;-74
2022/03/13 06:49:35;;;;;;;24.50;15.90;;;6.10;70.60;;;;;;5056590;28;20194;-77
2022/03/13 06:52:01;;;;;;;20.57;15.60;;;5.80;70.10;;;;;;5040911;28;20285;-73
2022/03/13 06:54:27;;;;;;;19.83;14.43;;;5.80;71.00;;;;;;5052627;28;20417;-73
2022/03/13 06:56:53;;;;;;;24.03;15.43;;;6.10;70.60;;;;;;5054223;28;20448;-74
2022/03/13 06:59:19;;;;;;;21.17;14.77;;;6.10;70.30;;;;;;5056341;28;20176;-74
2022/03/13 07:01:44;;;;;;;27.33;16.13;;;6.10;69.50;;;;;;5055697;28;20819;-75
2022/03/13 07:04:12;;;;;;;26.30;17.30;;;6.10;69.60;;;;;;5057892;28;20429;-73
2022/03/13 07:06:38;;;;;;;25.23;16.10;;;6.00;69.00;;;;;;5054825;28;20188;-75
2022/03/13 07:09:03;;;;;;;23.83;16.87;;;5.90;70.30;;;;;;5052925;28;20432;-74
2022/03/13 07:11:32;;;;;;;24.63;16.73;;;5.90;69.60;;;;;;5054078;28;20590;-74
2022/03/13 07:13:58;;;;;;;27.00;16.63;;;5.80;71.10;;;;;;5037396;28;20218;-73
2022/03/13 07:16:24;;;;;;;24.07;15.70;;;6.10;71.50;;;;;;5056714;28;20501;-72
2022/03/13 07:18:50;;;;;;;21.67;15.00;;;6.10;70.90;;;;;;5058058;28;20425;-73
2022/03/13 07:21:15;;;;;;;23.67;16.30;;;6.50;70.40;;;;;;5064775;28;20453;-73
2022/03/13 07:23:41;;;;;;;26.17;17.50;;;6.80;69.90;;;;;;5058319;28;20237;-76
2022/03/13 07:26:07;;;;;;;26.50;17.47;;;6.70;69.50;;;;;;5059345;28;20184;-74
2022/03/13 07:28:32;;;;;;;21.90;15.10;;;6.80;69.90;;;;;;5059729;28;20195;-75
2022/03/13 07:30:58;;;;;;;24.27;16.40;;;7.10;68.60;;;;;;5057691;28;20461;-73
2022/03/13 07:33:24;;;;;;;29.90;16.23;;;7.20;66.60;;;;;;5056470;28;20205;-74
2022/03/13 07:35:50;;;;;;;25.10;17.30;;;7.20;66.60;;;;;;5055834;28;20273;-73
2022/03/13 07:38:16;;;;;;;24.50;15.80;;;7.20;67.80;;;;;;5053570;28;20966;-74
2022/03/13 07:40:43;;;;;;;23.50;16.93;;;7.50;67.20;;;;;;5058638;28;20259;-72
2022/03/13 07:43:09;;;;;;;22.00;15.97;;;7.70;65.90;;;;;;5059396;28;20476;-74
2022/03/13 07:45:35;;;;;;;21.43;15.70;;;7.70;65.40;;;;;;5061782;28;20457;-73
2022/03/13 07:48:00;;;;;;;24.43;16.63;;;8.00;65.50;;;;;;5041013;28;20512;-73
2022/03/13 07:50:28;;;;;;;23.57;16.90;;;8.20;64.70;;;;;;5058203;28;20184;-74
2022/03/13 07:52:54;;;;;;;20.13;17.23;;;8.30;64.40;;;;;;5058839;28;20235;-72
2022/03/13 07:55:21;;;;;;;24.23;16.83;;;8.30;64.20;;;;;;5058316;28;20488;-71
2022/03/13 07:57:48;;;;;;;25.30;18.23;;;8.40;63.80;;;;;;5040786;28;20179;-70
2022/03/13 08:00:18;;;;;;;23.10;17.13;;;8.40;63.30;;;;;;5059418;28;20425;-72
2022/03/13 08:02:50;;;;;;;25.40;17.90;;;8.60;63.10;;;;;;5058252;28;20458;-71
2022/03/13 08:05:18;;;;;;;24.60;17.53;;;8.30;63.20;;;;;;5047753;28;20441;-72
2022/03/13 08:07:44;;;;;;;22.60;17.20;;;8.60;63.30;;;;;;5056757;28;20442;-71
2022/03/13 08:10:10;;;;;;;23.13;15.20;;;8.90;61.60;;;;;;5059161;28;20935;-71
2022/03/13 08:12:38;;;;;;;26.67;17.00;;;9.00;60.90;;;;;;5043572;28;20453;-73
2022/03/13 08:15:06;;;;;;;26.10;17.50;;;9.00;60.60;;;;;;5058358;28;20476;-70
2022/03/13 08:17:33;;;;;;;24.37;16.90;;;9.00;60.80;;;;;;5045662;28;20433;-70
2022/03/13 08:19:59;;;;;;;24.20;16.13;;;9.00;60.90;;;;;;5059476;28;20434;-72
2022/03/13 08:22:28;;;;;;;22.13;16.70;;;9.00;60.70;;;;;;5060312;28;20456;-72
2022/03/13 08:24:54;;;;;;;23.20;17.10;;;9.10;60.70;;;;;;5058009;28;20520;-75
2022/03/13 08:27:19;;;;;;;28.17;19.23;;;9.30;60.10;;;;;;5038316;28;20505;-74
2022/03/13 08:29:45;;;;;;;22.87;16.67;;;9.30;59.90;;;;;;5058797;28;20469;-74
2022/03/13 08:32:11;;;;;;;24.37;17.13;;;9.30;60.20;;;;;;5064296;28;20293;-74
2022/03/13 08:34:38;;;;;;;25.53;17.77;;;9.40;59.70;;;;;;5045343;28;20926;-73
2022/03/13 08:37:04;;;;;;;27.77;18.03;;;9.40;59.60;;;;;;5060211;28;20175;-72
2022/03/13 08:39:30;;;;;;;25.30;16.50;;;9.50;59.60;;;;;;5059993;28;20422;-72
2022/03/13 08:41:56;;;;;;;24.93;17.10;;;9.60;59.50;;;;;;5041235;28;20770;-75
2022/03/13 08:44:22;;;;;;;27.43;18.00;;;9.70;59.60;;;;;;5044627;28;20432;-75
2022/03/13 08:46:47;;;;;;;25.73;18.20;;;9.90;59.20;;;;;;5045704;28;20627;-75
2022/03/13 08:49:15;;;;;;;28.73;17.10;;;9.90;58.40;;;;;;5057517;28;20189;-75
2022/03/13 08:51:41;;;;;;;24.27;16.93;;;10.00;57.80;;;;;;5059065;28;20203;-75
2022/03/13 08:54:07;;;;;;;25.37;18.63;;;10.00;57.50;;;;;;5053599;28;20854;-73
2022/03/13 08:56:33;;;;;;;25.37;17.83;;;10.10;57.50;;;;;;5039895;28;20247;-72
2022/03/13 08:58:59;;;;;;;27.33;19.40;;;10.20;57.50;;;;;;5061635;28;20457;-73
2022/03/13 09:01:25;;;;;;;23.80;17.00;;;10.30;57.30;;;;;;5056698;28;20210;-74
2022/03/13 09:03:51;;;;;;;25.07;18.00;;;10.20;57.50;;;;;;5040799;28;20181;-75
2022/03/13 09:06:17;;;;;;;24.50;16.90;;;10.30;57.70;;;;;;5046561;28;20427;-73
2022/03/13 09:08:49;;;;;;;28.07;17.37;;;10.20;57.60;;;;;;5052426;28;20434;-74
2022/03/13 09:11:15;;;;;;;28.00;17.97;;;10.30;57.80;;;;;;5055637;28;20202;-71
2022/03/13 09:13:41;;;;;;;22.27;17.43;;;10.50;57.90;;;;;;5059428;28;20437;-71
2022/03/13 09:16:07;;;;;;;26.70;18.80;;;10.50;58.00;;;;;;5059455;28;20875;-72
2022/03/13 09:18:32;;;;;;;25.20;17.63;;;10.50;57.70;;;;;;5055676;28;20179;-72
2022/03/13 09:20:58;;;;;;;24.13;18.13;;;10.60;57.40;;;;;;5058375;28;20261;-73
2022/03/13 09:23:24;;;;;;;28.00;16.90;;;10.60;57.30;;;;;;5062821;28;20248;-73
2022/03/13 09:25:52;;;;;;;30.30;18.63;;;10.90;57.80;;;;;;5027484;28;20513;-73
2022/03/13 09:28:18;;;;;;;25.53;18.93;;;10.90;57.30;;;;;;5062833;28;20189;-73
2022/03/13 09:30:44;;;;;;;27.33;18.20;;;10.90;57.10;;;;;;5056122;28;20960;-71
2022/03/13 09:33:11;;;;;;;27.10;19.63;;;11.10;56.90;;;;;;5061594;28;20518;-70
2022/03/13 09:35:36;;;;;;;24.37;17.30;;;11.20;57.00;;;;;;5058562;28;20225;-72
2022/03/13 09:38:02;;;;;;;29.47;18.93;;;11.30;57.00;;;;;;5062145;28;20927;-74
2022/03/13 09:40:28;;;;;;;23.87;18.30;;;11.40;56.60;;;;;;5057384;28;20190;-70
2022/03/13 09:42:54;;;;;;;24.27;17.13;;;11.50;55.70;;;;;;5060907;28;20221;-71
2022/03/13 09:45:20;;;;;;;27.40;18.67;;;11.60;56.20;;;;;;5058390;28;20422;-70
2022/03/13 09:47:47;;;;;;;27.13;17.67;;;11.70;55.70;;;;;;5059792;28;20459;-72
2022/03/13 09:50:13;;;;;;;29.37;19.30;;;11.80;55.20;;;;;;5041547;28;20475;-71
2022/03/13 09:52:40;;;;;;;21.90;16.33;;;11.90;56.10;;;;;;5056766;28;20533;-71
2022/03/13 09:55:08;;;;;;;24.90;16.67;;;12.10;55.40;;;;;;5062769;28;20489;-72
2022/03/13 09:57:36;;;;;;;26.83;18.30;;;12.20;55.40;;;;;;5044286;28;20428;-72
2022/03/13 10:00:06;;;;;;;25.10;17.97;;;12.30;55.10;;;;;;5061073;28;20489;-72
2022/03/13 10:02:34;;;;;;;24.07;17.47;;;12.30;55.20;;;;;;5042989;28;20462;-72
2022/03/13 10:05:08;;;;;;;23.60;17.47;;;12.50;55.30;;;;;;5061552;28;20961;-73
2022/03/13 10:07:53;;;;;;;24.43;17.20;;;12.50;54.60;;;;;;5036820;28;20437;-72
2022/03/13 10:10:20;;;;;;;24.13;19.50;;;12.60;54.70;;;;;;5056786;28;20476;-74
2022/03/13 10:12:46;;;;;;;26.93;17.40;;;12.50;54.40;;;;;;5057945;28;21278;-74
2022/03/13 10:15:13;;;;;;;24.13;18.10;;;12.60;54.90;;;;;;5055742;28;20461;-72
2022/03/13 10:17:40;;;;;;;27.50;18.40;;;12.80;54.70;;;;;;5058465;28;20175;-72
2022/03/13 10:20:15;;;;;;;23.97;17.87;;;12.60;54.80;;;;;;5058640;28;20418;-73
2022/03/13 10:22:42;;;;;;;27.50;17.30;;;12.80;54.60;;;;;;5056255;28;20445;-73
2022/03/13 10:25:08;;;;;;;24.70;18.33;;;13.00;54.80;;;;;;5060612;28;20440;-74
2022/03/13 10:27:34;;;;;;;27.03;20.50;;;13.10;54.00;;;;;;5053259;28;20445;-73
2022/03/13 10:30:08;;;;;;;24.80;18.93;;;13.30;54.50;;;;;;5058243;28;20201;-75
2022/03/13 10:32:35;;;;;;;26.33;20.23;;;13.30;53.80;;;;;;5053342;28;20989;-74
2022/03/13 10:35:01;;;;;;;33.63;19.77;;;13.10;54.30;;;;;;5055339;28;20528;-73
2022/03/13 10:37:43;;;;;;;24.40;18.30;;;13.30;54.70;;;;;;5060411;28;20517;-74
2022/03/13 10:40:24;;;;;;;24.30;17.53;;;13.40;54.20;;;;;;5055007;28;20990;-73
2022/03/13 10:42:51;;;;;;;33.57;19.70;;;13.50;53.90;;;;;;5061628;28;20441;-75
2022/03/13 10:45:47;;;;;;;25.63;18.70;;;13.50;53.30;;;;;;5056315;28;20437;-73
2022/03/13 10:48:22;;;;;;;25.30;18.73;;;13.50;53.20;;;;;;5054131;28;20801;-74
2022/03/13 10:50:52;;;;;;;27.87;19.17;;;13.50;53.10;;;;;;5059036;28;20503;-70
2022/03/13 10:53:22;;;;;;;27.93;20.43;;;13.40;53.50;;;;;;5041467;28;20422;-72
2022/03/13 10:56:08;;;;;;;29.50;20.60;;;13.60;53.20;;;;;;5059642;28;20484;-72
2022/03/13 10:58:45;;;;;;;28.53;19.70;;;13.80;52.60;;;;;;5038302;28;20457;-70
2022/03/13 11:01:12;;;;;;;29.13;20.00;;;13.90;52.40;;;;;;5062523;28;20448;-71
2022/03/13 11:03:48;;;;;;;29.50;20.30;;;13.80;53.20;;;;;;5041842;28;20835;-72
2022/03/13 11:06:14;;;;;;;27.93;20.30;;;14.00;53.40;;;;;;5059748;28;20946;-72
2022/03/13 11:08:41;;;;;;;32.00;25.37;;;14.10;53.40;;;;;;5061106;28;20448;-68
2022/03/13 11:11:12;;;;;;;34.83;23.80;;;14.20;53.00;;;;;;5045592;28;20203;-71
2022/03/13 11:13:41;;;;;;;34.20;23.07;;;14.40;53.10;;;;;;5063285;28;20422;-71
2022/03/13 11:16:09;;;;;;;27.20;19.27;;;14.40;52.50;;;;;;5060109;28;20479;-72
2022/03/13 11:18:35;;;;;;;25.97;19.20;;;14.60;52.30;;;;;;5063688;28;20437;-72
2022/03/13 11:21:04;;;;;;;29.93;20.50;;;14.80;52.30;;;;;;5061774;28;20437;-72
2022/03/13 11:23:33;;;;;;;25.00;19.20;;;14.90;51.80;;;;;;5044032;28;20443;-72
2022/03/13 11:26:00;;;;;;;28.90;20.20;;;15.00;51.90;;;;;;5042328;28;20440;-69
2022/03/13 11:28:28;;;;;;;39.93;23.47;;;15.10;51.90;;;;;;5057245;28;21058;-71
2022/03/13 11:30:54;;;;;;;27.63;19.87;;;15.10;51.50;;;;;;5056636;28;20457;-71
2022/03/13 11:33:44;;;;;;;27.80;20.13;;;15.10;51.20;;;;;;5039632;28;20749;-72
2022/03/13 11:36:32;;;;;;;27.87;20.30;;;15.20;51.40;;;;;;5056832;28;20461;-71
2022/03/13 11:39:05;;;;;;;25.17;20.13;;;15.30;51.30;;;;;;5059233;28;20423;-72
2022/03/13 11:41:42;;;;;;;25.87;20.47;;;15.40;51.20;;;;;;5058268;28;20528;-71
2022/03/13 11:44:23;;;;;;;33.00;20.40;;;15.40;51.30;;;;;;5056290;28;20938;-70
2022/03/13 11:46:54;;;;;;;27.33;20.27;;;15.50;51.60;;;;;;5045015;28;21023;-71
2022/03/13 11:49:34;;;;;;;28.87;20.63;;;15.60;51.50;;;;;;5054713;28;20430;-71
2022/03/13 11:52:20;;;;;;;24.37;19.80;;;15.70;51.80;;;;;;5058047;28;20449;-71
2022/03/13 11:54:50;;;;;;;26.33;19.73;;;15.80;51.30;;;;;;5061536;28;20441;-72
2022/03/13 11:57:40;;;;;;;29.93;21.67;;;16.00;51.10;;;;;;5056757;28;20464;-71
2022/03/13 12:00:12;;;;;;;29.67;20.43;;;16.10;50.30;;;;;;5058155;28;20425;-72
2022/03/13 12:02:41;;;;;;;31.53;22.80;;;16.30;50.90;;;;;;5057994;28;20457;-72
2022/03/13 12:05:27;;;;;;;30.70;21.73;;;16.40;50.20;;;;;;5058429;28;20435;-72
2022/03/13 12:08:08;;;;;;;28.60;21.67;;;16.60;49.80;;;;;;5045198;28;20980;-72
2022/03/13 12:10:41;;;;;;;26.87;21.00;;;16.90;49.80;;;;;;5046482;28;20533;-72
2022/03/13 12:13:18;;;;;;;28.60;20.03;;;17.60;49.70;;;;;;5060046;28;20524;-72
2022/03/13 12:15:45;;;;;;;27.70;21.33;;;18.30;48.70;;;;;;5041050;28;20465;-71
2022/03/13 12:18:25;;;;;;;31.80;23.10;;;19.00;47.70;;;;;;5028574;28;20429;-70
2022/03/13 12:20:51;;;;;;;23.87;20.17;;;19.80;46.60;;;;;;5042350;28;20523;-72
2022/03/13 12:23:34;;;;;;;28.47;22.10;;;20.20;45.40;;;;;;5062681;28;20418;-70
2022/03/13 12:26:25;;;;;;;26.70;20.97;;;21.00;45.00;;;;;;5043333;28;20429;-71
2022/03/13 12:28:58;;;;;;;23.67;20.17;;;21.30;44.40;;;;;;5056922;28;20877;-72
2022/03/13 12:31:25;;;;;;;28.93;20.90;;;22.10;43.10;;;;;;5026732;28;20449;-72
2022/03/13 12:33:53;;;;;;;22.97;19.70;;;22.60;42.30;;;;;;5022098;28;20442;-72
2022/03/13 12:36:20;;;;;;;26.23;20.90;;;23.20;42.30;;;;;;5057339;28;20466;-71